Date,TemperatureHighF,TemperatureAvgF,TemperatureLowF,DewpointHighF,DewpointAvgF,DewpointLowF,HumidityHigh,HumidityAvg,HumidityLow,PressureMaxIn,PressureMinIn,WindSpeedMaxMPH,WindSpeedAvgMPH,GustSpeedMaxMPH,PrecipitationSumIn
2013-1-1,58,53,48,50,47,45,93,82,64,30.16,30.04,10,3,15,0.00
2013-1-2,55,49,45,48,45,39,97,86,66,30.36,30.12,22,4,31,0.10
2013-1-3,56,52,48,52,48,38,95,85,64,30.66,30.35,28,12,37,0.02
2013-1-4,61,49,37,51,44,36,98,83,53,30.66,30.52,11,3,14,0.01
2013-1-5,64,51,41,53,47,41,99,87,58,30.52,30.30,11,3,13,0.01
2013-1-6,63,50,38,51,43,38,99,80,46,30.37,30.29,13,2,15,0.01
2013-1-7,67,51,38,55,48,37,99,89,57,30.31,30.20,12,3,14,0.01
2013-1-8,64,49,38,56,46,38,99,92,65,30.36,30.29,7,1,9,0.02
2013-1-9,59,48,40,54,45,40,99,90,68,30.32,30.16,17,4,18,0.02
2013-1-10,63,54,45,51,47,42,95,81,52,30.17,30.10,17,4,20,0.00
2013-1-11,59,50,43,51,46,41,97,86,68,30.18,30.11,10,2,14,0.00
2013-1-12,60,48,36,52,44,35,99,88,66,30.17,29.99,12,3,17,0.02
2013-1-13,55,51,42,51,43,36,95,76,52,29.98,29.79,25,7,31,0.00
2013-1-14,55,45,36,44,39,34,93,78,51,30.03,29.94,12,3,19,0.00
2013-1-15,57,47,36,46,40,34,95,77,54,30.00,29.82,27,7,30,0.00
2013-1-16,58,53,42,48,45,37,84,74,62,29.96,29.66,25,10,28,0.00
2013-1-17,58,49,41,50,43,39,93,82,68,29.86,29.65,12,4,18,0.03
2013-1-18,60,52,39,55,47,37,96,84,65,29.82,29.54,15,4,24,0.01
2013-1-19,62,58,52,56,54,50,96,85,65,29.53,29.13,32,15,37,0.12
2013-1-20,56,51,45,51,45,39,95,81,68,29.64,29.14,19,6,30,0.06
2013-1-21,57,51,44,50,42,35,89,72,59,29.89,29.57,23,6,29,0.00
2013-1-22,55,48,40,47,38,33,87,70,55,29.90,29.59,27,9,36,0.02
2013-1-23,50,47,42,42,38,35,89,71,61,29.82,29.56,35,11,52,0.00
2013-1-24,51,48,43,48,41,32,95,79,51,29.83,29.59,19,6,29,0.52
2013-1-25,56,45,38,43,39,36,96,80,48,29.95,29.80,20,5,28,0.06
2013-1-26,54,47,40,49,44,37,94,86,70,30.14,29.79,18,5,28,0.06
2013-1-27,60,51,41,54,47,40,98,89,64,30.14,29.88,15,5,22,0.01
2013-1-28,58,52,44,53,45,38,96,77,47,30.36,29.86,27,10,43,0.17
2013-1-29,60,48,37,52,44,36,97,86,66,30.41,30.35,11,2,13,0.00
2013-1-30,65,50,39,53,46,38,99,87,47,30.39,30.29,14,4,16,0.02
2013-1-31,68,53,42,55,48,41,99,86,55,30.47,30.37,12,3,14,0.01